sensor_id;sensor_type;location;lat;lon;timestamp;pressure;altitude;pressure_sealevel;temperature;humidity
8051;BME280;4068;42.158;24.732;2022-07-06T00:01:41;99499.72;;;23.40;72.48
8051;BME280;4068;42.158;24.732;2022-07-06T00:04:06;99509.31;;;23.49;72.27
8051;BME280;4068;42.158;24.732;2022-07-06T00:06:33;99485.59;;;23.44;71.23
8051;BME280;4068;42.158;24.732;2022-07-06T00:08:59;99472.47;;;23.48;71.21
8051;BME280;4068;42.158;24.732;2022-07-06T00:11:25;99502.81;;;23.77;70.26
8051;BME280;4068;42.158;24.732;2022-07-06T00:13:50;99491.38;;;23.68;71.12
8051;BME280;4068;42.158;24.732;2022-07-06T00:16:16;99502.19;;;23.75;73.71
8051;BME280;4068;42.158;24.732;2022-07-06T00:18:42;99501.59;;;23.73;74.19
8051;BME280;4068;42.158;24.732;2022-07-06T00:21:07;99506.59;;;23.69;75.77
8051;BME280;4068;42.158;24.732;2022-07-06T00:23:33;99498.91;;;23.46;77.75
8051;BME280;4068;42.158;24.732;2022-07-06T00:25:58;99488.03;;;22.99;79.55
8051;BME280;4068;42.158;24.732;2022-07-06T00:28:24;99512.38;;;22.99;80.76
8051;BME280;4068;42.158;24.732;2022-07-06T00:30:49;99495.06;;;22.80;81.66
8051;BME280;4068;42.158;24.732;2022-07-06T00:33:15;99487.94;;;22.66;83.06
8051;BME280;4068;42.158;24.732;2022-07-06T00:35:41;99482.69;;;22.44;83.61
8051;BME280;4068;42.158;24.732;2022-07-06T00:38:06;99471.69;;;22.46;83.52
8051;BME280;4068;42.158;24.732;2022-07-06T00:40:32;99476.66;;;22.35;83.99
8051;BME280;4068;42.158;24.732;2022-07-06T00:42:58;99456.41;;;22.24;84.10
8051;BME280;4068;42.158;24.732;2022-07-06T00:45:23;99447.84;;;22.14;84.54
8051;BME280;4068;42.158;24.732;2022-07-06T00:47:49;99472.84;;;22.30;84.86
8051;BME280;4068;42.158;24.732;2022-07-06T00:52:55;99462.88;;;22.23;85.70
8051;BME280;4068;42.158;24.732;2022-07-06T00:55:24;99457.66;;;22.29;85.73
8051;BME280;4068;42.158;24.732;2022-07-06T00:57:50;99449.22;;;22.38;85.19
8051;BME280;4068;42.158;24.732;2022-07-06T01:00:19;99433.63;;;22.34;85.22
8051;BME280;4068;42.158;24.732;2022-07-06T01:02:46;99440.91;;;22.40;85.56
8051;BME280;4068;42.158;24.732;2022-07-06T01:05:13;99436.38;;;22.40;85.49
8051;BME280;4068;42.158;24.732;2022-07-06T01:07:42;99426.16;;;22.36;85.20
8051;BME280;4068;42.158;24.732;2022-07-06T01:10:09;99414.47;;;22.29;85.83
8051;BME280;4068;42.158;24.732;2022-07-06T01:12:38;99413.59;;;22.21;86.58
8051;BME280;4068;42.158;24.732;2022-07-06T01:15:05;99405.50;;;22.15;87.13
8051;BME280;4068;42.158;24.732;2022-07-06T01:17:32;99409.63;;;22.11;86.48
8051;BME280;4068;42.158;24.732;2022-07-06T01:19:58;99402.78;;;22.08;86.81
8051;BME280;4068;42.158;24.732;2022-07-06T01:22:23;99391.53;;;21.98;87.16
8051;BME280;4068;42.158;24.732;2022-07-06T01:24:49;99393.16;;;21.99;87.77
8051;BME280;4068;42.158;24.732;2022-07-06T01:27:14;99385.06;;;21.99;87.40
8051;BME280;4068;42.158;24.732;2022-07-06T01:29:40;99384.69;;;22.02;87.12
8051;BME280;4068;42.158;24.732;2022-07-06T01:32:06;99358.25;;;21.84;87.72
8051;BME280;4068;42.158;24.732;2022-07-06T01:34:32;99370.72;;;21.92;88.35
8051;BME280;4068;42.158;24.732;2022-07-06T01:36:57;99373.63;;;21.90;88.41
8051;BME280;4068;42.158;24.732;2022-07-06T01:39:23;99362.16;;;21.81;88.16
8051;BME280;4068;42.158;24.732;2022-07-06T01:41:48;99372.72;;;21.76;88.55
8051;BME280;4068;42.158;24.732;2022-07-06T01:44:14;99361.31;;;21.74;88.70
8051;BME280;4068;42.158;24.732;2022-07-06T01:46:39;99360.28;;;21.82;87.33
8051;BME280;4068;42.158;24.732;2022-07-06T01:49:05;99360.28;;;21.82;88.22
8051;BME280;4068;42.158;24.732;2022-07-06T01:51:31;99352.84;;;21.84;87.50
8051;BME280;4068;42.158;24.732;2022-07-06T01:53:57;99349.31;;;21.83;87.74
8051;BME280;4068;42.158;24.732;2022-07-06T01:56:23;99328.94;;;21.74;87.77
8051;BME280;4068;42.158;24.732;2022-07-06T01:58:49;99341.84;;;21.85;87.05
8051;BME280;4068;42.158;24.732;2022-07-06T02:01:17;99343.72;;;21.85;87.37
8051;BME280;4068;42.158;24.732;2022-07-06T02:03:43;99332.88;;;21.78;87.46
8051;BME280;4068;42.158;24.732;2022-07-06T02:06:10;99334.56;;;21.86;87.78
8051;BME280;4068;42.158;24.732;2022-07-06T02:08:37;99303.97;;;21.65;88.08
8051;BME280;4068;42.158;24.732;2022-07-06T02:11:04;99328.97;;;21.81;87.93
8051;BME280;4068;42.158;24.732;2022-07-06T02:13:29;99331.88;;;21.79;87.99
8051;BME280;4068;42.158;24.732;2022-07-06T02:15:55;99325.63;;;21.79;88.58
8051;BME280;4068;42.158;24.732;2022-07-06T02:18:20;99326.44;;;21.72;88.71
8051;BME280;4068;42.158;24.732;2022-07-06T02:20:46;99319.16;;;21.73;88.44
8051;BME280;4068;42.158;24.732;2022-07-06T02:23:12;99321.44;;;21.76;88.30
8051;BME280;4068;42.158;24.732;2022-07-06T02:25:37;99318.13;;;21.74;88.33
8051;BME280;4068;42.158;24.732;2022-07-06T02:28:03;99323.56;;;21.81;87.51
8051;BME280;4068;42.158;24.732;2022-07-06T02:30:28;99318.56;;;21.78;87.17
8051;BME280;4068;42.158;24.732;2022-07-06T02:32:54;99311.47;;;21.70;87.45
8051;BME280;4068;42.158;24.732;2022-07-06T02:35:19;99334.34;;;21.87;87.28
8051;BME280;4068;42.158;24.732;2022-07-06T02:37:45;99336.44;;;21.85;87.70
8051;BME280;4068;42.158;24.732;2022-07-06T02:40:11;99333.78;;;21.92;89.00
8051;BME280;4068;42.158;24.732;2022-07-06T02:42:36;99326.47;;;21.86;88.77
8051;BME280;4068;42.158;24.732;2022-07-06T02:45:03;99347.88;;;21.94;89.25
8051;BME280;4068;42.158;24.732;2022-07-06T02:47:28;99350.56;;;21.87;90.01
8051;BME280;4068;42.158;24.732;2022-07-06T02:49:54;99350.38;;;21.89;90.64
8051;BME280;4068;42.158;24.732;2022-07-06T02:52:19;99342.88;;;21.84;89.90
8051;BME280;4068;42.158;24.732;2022-07-06T02:54:45;99348.09;;;21.93;89.85
8051;BME280;4068;42.158;24.732;2022-07-06T02:57:10;99347.44;;;21.84;89.74
8051;BME280;4068;42.158;24.732;2022-07-06T02:59:36;99354.72;;;21.90;89.24
8051;BME280;4068;42.158;24.732;2022-07-06T03:02:03;99354.06;;;21.81;89.73
8051;BME280;4068;42.158;24.732;2022-07-06T03:04:29;99360.13;;;21.83;90.03
8051;BME280;4068;42.158;24.732;2022-07-06T03:06:54;99358.47;;;21.89;90.69
8051;BME280;4068;42.158;24.732;2022-07-06T03:09:20;99339.16;;;21.92;89.27
8051;BME280;4068;42.158;24.732;2022-07-06T03:11:45;99367.03;;;22.06;87.93
8051;BME280;4068;42.158;24.732;2022-07-06T03:14:10;99355.00;;;22.09;88.97
8051;BME280;4068;42.158;24.732;2022-07-06T03:16:36;99358.38;;;22.31;89.25
8051;BME280;4068;42.158;24.732;2022-07-06T03:19:01;99369.66;;;22.54;87.56
8051;BME280;4068;42.158;24.732;2022-07-06T03:21:27;99374.66;;;22.64;87.18
8051;BME280;4068;42.158;24.732;2022-07-06T03:23:52;99374.88;;;22.69;86.96
8051;BME280;4068;42.158;24.732;2022-07-06T03:26:18;99363.66;;;22.72;86.66
8051;BME280;4068;42.158;24.732;2022-07-06T03:28:43;99379.06;;;23.19;85.15
8051;BME280;4068;42.158;24.732;2022-07-06T03:31:09;99382.66;;;23.85;81.22
8051;BME280;4068;42.158;24.732;2022-07-06T03:33:34;99383.16;;;24.52;77.79
8051;BME280;4068;42.158;24.732;2022-07-06T03:35:59;99380.56;;;25.21;74.64
8051;BME280;4068;42.158;24.732;2022-07-06T03:38:25;99381.19;;;25.79;71.64
8051;BME280;4068;42.158;24.732;2022-07-06T03:40:50;99384.91;;;26.33;69.28
8051;BME280;4068;42.158;24.732;2022-07-06T03:43:16;99385.88;;;26.69;68.34
8051;BME280;4068;42.158;24.732;2022-07-06T03:45:42;99382.59;;;27.03;66.60
8051;BME280;4068;42.158;24.732;2022-07-06T03:48:08;99384.88;;;27.18;64.95
8051;BME280;4068;42.158;24.732;2022-07-06T03:50:33;99393.63;;;27.08;64.98
8051;BME280;4068;42.158;24.732;2022-07-06T03:52:59;99400.94;;;26.84;65.96
8051;BME280;4068;42.158;24.732;2022-07-06T03:55:24;99378.78;;;26.68;65.35
8051;BME280;4068;42.158;24.732;2022-07-06T03:57:50;99405.53;;;26.53;65.97
8051;BME280;4068;42.158;24.732;2022-07-06T04:00:15;99380.13;;;26.17;68.09
8051;BME280;4068;42.158;24.732;2022-07-06T04:02:40;99405.41;;;26.17;68.65
8051;BME280;4068;42.158;24.732;2022-07-06T04:05:06;99396.91;;;26.14;69.98
8051;BME280;4068;42.158;24.732;2022-07-06T04:07:32;99393.25;;;26.20;70.33
8051;BME280;4068;42.158;24.732;2022-07-06T04:09:57;99390.69;;;26.25;70.38
8051;BME280;4068;42.158;24.732;2022-07-06T04:12:23;99391.53;;;26.38;69.60
8051;BME280;4068;42.158;24.732;2022-07-06T04:14:48;99368.97;;;26.37;70.19
8051;BME280;4068;42.158;24.732;2022-07-06T04:17:13;99393.00;;;26.52;70.15
8051;BME280;4068;42.158;24.732;2022-07-06T04:19:57;99404.56;;;26.47;71.50
8051;BME280;4068;42.158;24.732;2022-07-06T04:22:23;99385.56;;;26.47;71.38
8051;BME280;4068;42.158;24.732;2022-07-06T04:24:48;99398.09;;;26.48;72.25
8051;BME280;4068;42.158;24.732;2022-07-06T04:27:13;99399.06;;;26.54;73.47
8051;BME280;4068;42.158;24.732;2022-07-06T04:29:39;99397.34;;;26.83;72.37
8051;BME280;4068;42.158;24.732;2022-07-06T04:32:05;99400.59;;;26.92;72.28
8051;BME280;4068;42.158;24.732;2022-07-06T04:34:30;99399.63;;;26.86;72.58
8051;BME280;4068;42.158;24.732;2022-07-06T04:36:56;99394.78;;;26.89;72.85
8051;BME280;4068;42.158;24.732;2022-07-06T04:39:21;99376.56;;;26.89;72.74
8051;BME280;4068;42.158;24.732;2022-07-06T04:41:47;99394.53;;;27.02;72.47
8051;BME280;4068;42.158;24.732;2022-07-06T04:44:12;99402.75;;;27.37;71.67
8051;BME280;4068;42.158;24.732;2022-07-06T04:46:37;99392.56;;;27.57;70.55
8051;BME280;4068;42.158;24.732;2022-07-06T04:49:03;99395.38;;;27.73;69.78
8051;BME280;4068;42.158;24.732;2022-07-06T04:51:28;99404.47;;;27.91;69.82
8051;BME280;4068;42.158;24.732;2022-07-06T04:53:54;99403.75;;;27.84;70.17
8051;BME280;4068;42.158;24.732;2022-07-06T04:56:19;99403.28;;;27.87;69.59
8051;BME280;4068;42.158;24.732;2022-07-06T04:58:44;99382.47;;;27.69;70.13
8051;BME280;4068;42.158;24.732;2022-07-06T05:01:10;99408.53;;;27.77;70.54
8051;BME280;4068;42.158;24.732;2022-07-06T05:03:35;99402.38;;;27.69;70.84
8051;BME280;4068;42.158;24.732;2022-07-06T05:06:05;99391.72;;;27.68;71.29
8051;BME280;4068;42.158;24.732;2022-07-06T05:08:30;99412.50;;;27.98;70.12
8051;BME280;4068;42.158;24.732;2022-07-06T05:10:56;99408.59;;;28.05;69.70
8051;BME280;4068;42.158;24.732;2022-07-06T05:13:21;99405.13;;;28.10;70.39
8051;BME280;4068;42.158;24.732;2022-07-06T05:15:46;99401.34;;;28.11;69.66
8051;BME280;4068;42.158;24.732;2022-07-06T05:18:12;99411.69;;;28.26;68.93
8051;BME280;4068;42.158;24.732;2022-07-06T05:20:37;99417.16;;;28.26;68.92
8051;BME280;4068;42.158;24.732;2022-07-06T05:23:03;99402.06;;;28.35;67.92
8051;BME280;4068;42.158;24.732;2022-07-06T05:25:28;99419.66;;;28.56;67.58
8051;BME280;4068;42.158;24.732;2022-07-06T05:27:54;99437.78;;;28.63;66.73
8051;BME280;4068;42.158;24.732;2022-07-06T05:30:19;99407.97;;;28.44;66.73
8051;BME280;4068;42.158;24.732;2022-07-06T05:32:45;99431.88;;;28.54;67.85
8051;BME280;4068;42.158;24.732;2022-07-06T05:35:10;99435.06;;;28.63;67.56
8051;BME280;4068;42.158;24.732;2022-07-06T05:37:36;99428.81;;;28.79;66.78
8051;BME280;4068;42.158;24.732;2022-07-06T05:40:01;99430.56;;;28.56;67.36
8051;BME280;4068;42.158;24.732;2022-07-06T05:42:26;99428.41;;;28.01;70.00
8051;BME280;4068;42.158;24.732;2022-07-06T05:44:55;99433.41;;;27.68;71.88
8051;BME280;4068;42.158;24.732;2022-07-06T05:47:22;99426.19;;;27.38;72.88
8051;BME280;4068;42.158;24.732;2022-07-06T05:50:06;99430.69;;;27.45;73.74
8051;BME280;4068;42.158;24.732;2022-07-06T05:52:42;99432.09;;;27.59;74.14
8051;BME280;4068;42.158;24.732;2022-07-06T05:55:11;99441.56;;;27.45;73.50
8051;BME280;4068;42.158;24.732;2022-07-06T05:57:38;99449.63;;;27.63;72.95
8051;BME280;4068;42.158;24.732;2022-07-06T06:00:05;99445.81;;;27.76;73.00
8051;BME280;4068;42.158;24.732;2022-07-06T06:02:39;99448.53;;;28.00;71.88
8051;BME280;4068;42.158;24.732;2022-07-06T06:05:06;99459.06;;;28.08;70.86
8051;BME280;4068;42.158;24.732;2022-07-06T06:07:33;99449.19;;;28.19;70.66
8051;BME280;4068;42.158;24.732;2022-07-06T06:10:00;99451.16;;;28.35;70.56
8051;BME280;4068;42.158;24.732;2022-07-06T06:12:26;99454.59;;;28.59;69.54
8051;BME280;4068;42.158;24.732;2022-07-06T06:14:51;99458.84;;;28.67;68.36
8051;BME280;4068;42.158;24.732;2022-07-06T06:17:16;99458.16;;;28.60;67.98
8051;BME280;4068;42.158;24.732;2022-07-06T06:19:42;99460.66;;;28.90;67.22
8051;BME280;4068;42.158;24.732;2022-07-06T06:22:07;99461.41;;;29.20;66.07
8051;BME280;4068;42.158;24.732;2022-07-06T06:24:33;99458.94;;;29.35;64.09
8051;BME280;4068;42.158;24.732;2022-07-06T06:26:58;99459.28;;;29.39;64.43
8051;BME280;4068;42.158;24.732;2022-07-06T06:29:24;99457.34;;;29.56;63.43
8051;BME280;4068;42.158;24.732;2022-07-06T06:31:50;99451.34;;;29.76;63.26
8051;BME280;4068;42.158;24.732;2022-07-06T06:34:15;99453.94;;;29.66;63.14
8051;BME280;4068;42.158;24.732;2022-07-06T06:36:41;99456.88;;;29.82;61.86
8051;BME280;4068;42.158;24.732;2022-07-06T06:39:06;99458.56;;;29.66;62.22
8051;BME280;4068;42.158;24.732;2022-07-06T06:41:32;99443.81;;;29.44;61.90
8051;BME280;4068;42.158;24.732;2022-07-06T06:43:57;99458.81;;;29.64;62.36
8051;BME280;4068;42.158;24.732;2022-07-06T06:46:22;99464.88;;;29.83;60.67
8051;BME280;4068;42.158;24.732;2022-07-06T06:48:48;99454.56;;;29.90;60.77
8051;BME280;4068;42.158;24.732;2022-07-06T06:51:13;99460.09;;;29.78;60.68
8051;BME280;4068;42.158;24.732;2022-07-06T06:53:38;99458.44;;;30.17;59.79
8051;BME280;4068;42.158;24.732;2022-07-06T06:56:04;99454.75;;;30.50;58.97
8051;BME280;4068;42.158;24.732;2022-07-06T06:58:29;99455.50;;;31.00;56.63
8051;BME280;4068;42.158;24.732;2022-07-06T07:00:55;99457.34;;;31.27;56.04
8051;BME280;4068;42.158;24.732;2022-07-06T07:03:20;99442.00;;;31.21;55.79
8051;BME280;4068;42.158;24.732;2022-07-06T07:05:46;99456.25;;;31.23;55.65
8051;BME280;4068;42.158;24.732;2022-07-06T07:08:11;99449.00;;;31.44;55.80
8051;BME280;4068;42.158;24.732;2022-07-06T07:10:37;99444.63;;;31.48;54.67
8051;BME280;4068;42.158;24.732;2022-07-06T07:13:02;99443.13;;;31.25;55.33
8051;BME280;4068;42.158;24.732;2022-07-06T07:15:28;99443.66;;;31.27;54.90
8051;BME280;4068;42.158;24.732;2022-07-06T07:17:53;99441.78;;;31.32;55.17
8051;BME280;4068;42.158;24.732;2022-07-06T07:20:19;99449.84;;;31.44;55.35
8051;BME280;4068;42.158;24.732;2022-07-06T07:22:44;99436.38;;;31.05;55.76
8051;BME280;4068;42.158;24.732;2022-07-06T07:25:10;99444.50;;;30.95;55.65
8051;BME280;4068;42.158;24.732;2022-07-06T07:27:35;99437.84;;;30.86;54.47
8051;BME280;4068;42.158;24.732;2022-07-06T07:30:01;99421.78;;;30.94;54.68
8051;BME280;4068;42.158;24.732;2022-07-06T07:32:26;99432.75;;;30.67;54.68
8051;BME280;4068;42.158;24.732;2022-07-06T07:34:52;99449.28;;;30.77;56.18
8051;BME280;4068;42.158;24.732;2022-07-06T07:37:17;99445.72;;;31.04;54.66
8051;BME280;4068;42.158;24.732;2022-07-06T07:39:42;99449.03;;;30.84;54.62
8051;BME280;4068;42.158;24.732;2022-07-06T07:42:08;99439.84;;;30.95;54.75
8051;BME280;4068;42.158;24.732;2022-07-06T07:44:33;99445.78;;;31.14;55.27
8051;BME280;4068;42.158;24.732;2022-07-06T07:46:59;99449.91;;;31.17;54.63
8051;BME280;4068;42.158;24.732;2022-07-06T07:49:24;99446.31;;;31.11;53.96
8051;BME280;4068;42.158;24.732;2022-07-06T07:51:50;99455.66;;;30.88;54.51
8051;BME280;4068;42.158;24.732;2022-07-06T07:54:16;99446.69;;;30.66;55.84
8051;BME280;4068;42.158;24.732;2022-07-06T07:56:41;99454.22;;;30.80;55.78
8051;BME280;4068;42.158;24.732;2022-07-06T07:59:07;99442.28;;;30.92;55.61
8051;BME280;4068;42.158;24.732;2022-07-06T08:01:33;99416.09;;;30.69;55.43
8051;BME280;4068;42.158;24.732;2022-07-06T08:03:59;99437.25;;;30.78;56.33
8051;BME280;4068;42.158;24.732;2022-07-06T08:06:25;99410.44;;;31.13;55.26
8051;BME280;4068;42.158;24.732;2022-07-06T08:08:50;99427.94;;;31.49;54.28
8051;BME280;4068;42.158;24.732;2022-07-06T08:11:16;99438.38;;;31.53;54.58
8051;BME280;4068;42.158;24.732;2022-07-06T08:13:41;99436.66;;;31.89;53.73
8051;BME280;4068;42.158;24.732;2022-07-06T08:16:07;99440.47;;;32.51;50.91
8051;BME280;4068;42.158;24.732;2022-07-06T08:18:33;99444.66;;;32.69;50.76
8051;BME280;4068;42.158;24.732;2022-07-06T08:20:59;99435.81;;;32.67;51.12
8051;BME280;4068;42.158;24.732;2022-07-06T08:23:24;99442.13;;;32.58;51.38
8051;BME280;4068;42.158;24.732;2022-07-06T08:25:49;99442.19;;;32.78;50.48
8051;BME280;4068;42.158;24.732;2022-07-06T08:28:15;99435.75;;;32.31;51.74
8051;BME280;4068;42.158;24.732;2022-07-06T08:30:40;99430.59;;;32.56;51.20
8051;BME280;4068;42.158;24.732;2022-07-06T08:33:06;99435.25;;;32.60;51.41
8051;BME280;4068;42.158;24.732;2022-07-06T08:35:31;99436.13;;;32.86;50.29
8051;BME280;4068;42.158;24.732;2022-07-06T08:37:57;99417.47;;;32.83;49.98
8051;BME280;4068;42.158;24.732;2022-07-06T08:40:22;99437.50;;;32.89;49.81
8051;BME280;4068;42.158;24.732;2022-07-06T08:42:53;99436.41;;;32.75;50.02
8051;BME280;4068;42.158;24.732;2022-07-06T08:45:19;99431.22;;;32.78;49.97
8051;BME280;4068;42.158;24.732;2022-07-06T08:47:46;99413.59;;;32.64;50.02
8051;BME280;4068;42.158;24.732;2022-07-06T08:50:14;99438.06;;;33.01;50.43
8051;BME280;4068;42.158;24.732;2022-07-06T08:52:41;99433.66;;;33.47;49.02
8051;BME280;4068;42.158;24.732;2022-07-06T08:55:10;99428.41;;;33.61;48.92
8051;BME280;4068;42.158;24.732;2022-07-06T08:57:37;99430.66;;;33.28;49.95
8051;BME280;4068;42.158;24.732;2022-07-06T09:00:09;99424.34;;;32.86;50.65
8051;BME280;4068;42.158;24.732;2022-07-06T09:02:34;99426.81;;;32.88;50.66
8051;BME280;4068;42.158;24.732;2022-07-06T09:05:02;99435.06;;;32.93;50.84
8051;BME280;4068;42.158;24.732;2022-07-06T09:07:28;99437.50;;;32.79;50.65
8051;BME280;4068;42.158;24.732;2022-07-06T09:09:55;99436.97;;;32.77;51.15
8051;BME280;4068;42.158;24.732;2022-07-06T09:12:21;99433.44;;;32.03;54.12
8051;BME280;4068;42.158;24.732;2022-07-06T09:14:46;99435.00;;;31.88;53.66
8051;BME280;4068;42.158;24.732;2022-07-06T09:17:12;99432.31;;;31.93;54.63
8051;BME280;4068;42.158;24.732;2022-07-06T09:19:37;99440.75;;;31.87;54.59
8051;BME280;4068;42.158;24.732;2022-07-06T09:22:03;99440.41;;;31.67;55.48
8051;BME280;4068;42.158;24.732;2022-07-06T09:24:29;99441.94;;;31.53;55.76
8051;BME280;4068;42.158;24.732;2022-07-06T09:26:57;99445.47;;;31.48;56.25
8051;BME280;4068;42.158;24.732;2022-07-06T09:29:32;99415.00;;;31.02;56.19
8051;BME280;4068;42.158;24.732;2022-07-06T09:32:03;99425.59;;;31.26;57.24
8051;BME280;4068;42.158;24.732;2022-07-06T09:34:47;99440.00;;;31.54;56.39
8051;BME280;4068;42.158;24.732;2022-07-06T09:37:13;99438.84;;;31.82;55.32
8051;BME280;4068;42.158;24.732;2022-07-06T09:39:39;99415.81;;;31.83;54.83
8051;BME280;4068;42.158;24.732;2022-07-06T09:42:06;99437.38;;;32.22;54.22
8051;BME280;4068;42.158;24.732;2022-07-06T09:44:38;99426.22;;;32.60;53.24
8051;BME280;4068;42.158;24.732;2022-07-06T09:47:08;99430.66;;;33.02;51.53
8051;BME280;4068;42.158;24.732;2022-07-06T09:49:35;99409.22;;;33.14;51.29
8051;BME280;4068;42.158;24.732;2022-07-06T09:52:03;99418.50;;;33.75;49.36
8051;BME280;4068;42.158;24.732;2022-07-06T09:54:29;99393.66;;;33.91;47.86
8051;BME280;4068;42.158;24.732;2022-07-06T09:56:56;99419.28;;;34.41;46.39
8051;BME280;4068;42.158;24.732;2022-07-06T09:59:24;99414.59;;;34.42;47.40
8051;BME280;4068;42.158;24.732;2022-07-06T10:01:54;99401.81;;;34.61;46.01
8051;BME280;4068;42.158;24.732;2022-07-06T10:04:20;99410.25;;;34.75;45.68
8051;BME280;4068;42.158;24.732;2022-07-06T10:06:46;99403.56;;;34.86;45.69
8051;BME280;4068;42.158;24.732;2022-07-06T10:09:12;99408.84;;;35.12;44.44
8051;BME280;4068;42.158;24.732;2022-07-06T10:11:40;99399.31;;;35.29;43.19
8051;BME280;4068;42.158;24.732;2022-07-06T10:14:07;99401.72;;;35.06;43.22
8051;BME280;4068;42.158;24.732;2022-07-06T10:16:39;99396.44;;;34.80;43.95
8051;BME280;4068;42.158;24.732;2022-07-06T10:19:08;99388.00;;;34.21;46.20
8051;BME280;4068;42.158;24.732;2022-07-06T10:21:38;99390.88;;;34.01;47.32
8051;BME280;4068;42.158;24.732;2022-07-06T10:24:06;99389.22;;;34.50;45.30
8051;BME280;4068;42.158;24.732;2022-07-06T10:26:35;99384.88;;;34.83;43.88
8051;BME280;4068;42.158;24.732;2022-07-06T10:29:03;99378.06;;;34.26;45.63
8051;BME280;4068;42.158;24.732;2022-07-06T10:31:29;99384.59;;;34.45;44.86
8051;BME280;4068;42.158;24.732;2022-07-06T10:33:57;99370.38;;;34.67;43.48
8051;BME280;4068;42.158;24.732;2022-07-06T10:36:23;99364.66;;;34.93;43.01
8051;BME280;4068;42.158;24.732;2022-07-06T10:38:50;99370.78;;;35.14;42.24
8051;BME280;4068;42.158;24.732;2022-07-06T10:41:16;99372.22;;;34.77;43.26
8051;BME280;4068;42.158;24.732;2022-07-06T10:46:13;99366.84;;;34.96;42.86
8051;BME280;4068;42.158;24.732;2022-07-06T10:48:40;99369.63;;;34.96;43.79
8051;BME280;4068;42.158;24.732;2022-07-06T10:51:07;99372.50;;;35.10;42.74
8051;BME280;4068;42.158;24.732;2022-07-06T10:53:35;99362.59;;;35.09;42.42
8051;BME280;4068;42.158;24.732;2022-07-06T10:56:10;99356.13;;;35.48;41.61
8051;BME280;4068;42.158;24.732;2022-07-06T10:58:48;99372.66;;;35.48;41.55
8051;BME280;4068;42.158;24.732;2022-07-06T11:01:15;99352.25;;;35.49;40.23
8051;BME280;4068;42.158;24.732;2022-07-06T11:03:52;99365.88;;;35.65;39.10
8051;BME280;4068;42.158;24.732;2022-07-06T11:06:32;99365.41;;;36.20;37.99
8051;BME280;4068;42.158;24.732;2022-07-06T11:09:05;99359.81;;;36.25;37.19
8051;BME280;4068;42.158;24.732;2022-07-06T11:14:16;99334.72;;;36.07;39.49
8051;BME280;4068;42.158;24.732;2022-07-06T11:19:18;99354.00;;;35.64;39.88
8051;BME280;4068;42.158;24.732;2022-07-06T11:21:49;99328.19;;;35.79;38.37
8051;BME280;4068;42.158;24.732;2022-07-06T11:24:22;99319.47;;;35.48;38.27
8051;BME280;4068;42.158;24.732;2022-07-06T11:26:50;99340.81;;;35.85;38.71
8051;BME280;4068;42.158;24.732;2022-07-06T11:29:18;99340.69;;;36.34;36.56
8051;BME280;4068;42.158;24.732;2022-07-06T11:31:47;99350.94;;;36.66;35.38
8051;BME280;4068;42.158;24.732;2022-07-06T11:34:18;99328.44;;;36.40;35.34
8051;BME280;4068;42.158;24.732;2022-07-06T11:36:44;99343.75;;;36.32;34.08
8051;BME280;4068;42.158;24.732;2022-07-06T11:39:10;99336.31;;;36.47;34.85
8051;BME280;4068;42.158;24.732;2022-07-06T11:41:36;99333.44;;;36.38;35.17
8051;BME280;4068;42.158;24.732;2022-07-06T11:44:02;99336.88;;;36.49;35.08
8051;BME280;4068;42.158;24.732;2022-07-06T11:48:59;99327.31;;;36.41;35.01
8051;BME280;4068;42.158;24.732;2022-07-06T11:51:26;99326.03;;;36.14;37.50
8051;BME280;4068;42.158;24.732;2022-07-06T11:53:54;99321.78;;;36.41;35.74
8051;BME280;4068;42.158;24.732;2022-07-06T11:56:20;99322.84;;;36.78;35.23
8051;BME280;4068;42.158;24.732;2022-07-06T11:59:01;99309.88;;;36.92;35.45
8051;BME280;4068;42.158;24.732;2022-07-06T12:01:28;99307.91;;;36.79;35.26
8051;BME280;4068;42.158;24.732;2022-07-06T12:03:58;99308.72;;;36.47;35.70
8051;BME280;4068;42.158;24.732;2022-07-06T12:06:25;99306.28;;;36.07;37.07
8051;BME280;4068;42.158;24.732;2022-07-06T12:08:54;99308.22;;;36.06;35.25
8051;BME280;4068;42.158;24.732;2022-07-06T12:11:26;99306.59;;;36.05;34.48
8051;BME280;4068;42.158;24.732;2022-07-06T12:13:57;99303.38;;;35.98;33.74
8051;BME280;4068;42.158;24.732;2022-07-06T12:16:34;99297.25;;;36.01;33.54
8051;BME280;4068;42.158;24.732;2022-07-06T12:19:02;99295.41;;;36.35;33.78
8051;BME280;4068;42.158;24.732;2022-07-06T12:21:28;99307.19;;;36.54;34.10
8051;BME280;4068;42.158;24.732;2022-07-06T12:23:54;99302.91;;;36.29;34.51
8051;BME280;4068;42.158;24.732;2022-07-06T12:26:25;99295.09;;;36.36;34.45
8051;BME280;4068;42.158;24.732;2022-07-06T12:29:07;99293.00;;;36.28;34.86
8051;BME280;4068;42.158;24.732;2022-07-06T12:34:05;99283.00;;;35.75;35.41
8051;BME280;4068;42.158;24.732;2022-07-06T12:36:44;99260.22;;;35.88;35.36
8051;BME280;4068;42.158;24.732;2022-07-06T12:39:12;99281.38;;;35.93;35.59
8051;BME280;4068;42.158;24.732;2022-07-06T12:41:44;99278.28;;;35.75;36.43
8051;BME280;4068;42.158;24.732;2022-07-06T12:44:11;99286.09;;;35.92;36.92
8051;BME280;4068;42.158;24.732;2022-07-06T12:46:40;99266.69;;;36.17;36.31
8051;BME280;4068;42.158;24.732;2022-07-06T12:49:13;99268.53;;;36.40;35.62
8051;BME280;4068;42.158;24.732;2022-07-06T12:52:01;99269.03;;;36.42;35.25
8051;BME280;4068;42.158;24.732;2022-07-06T12:54:40;99269.97;;;36.00;36.30
8051;BME280;4068;42.158;24.732;2022-07-06T12:59:47;99261.06;;;35.46;37.25
8051;BME280;4068;42.158;24.732;2022-07-06T13:02:34;99256.91;;;35.24;37.76
8051;BME280;4068;42.158;24.732;2022-07-06T13:05:14;99252.22;;;34.71;37.88
8051;BME280;4068;42.158;24.732;2022-07-06T13:07:47;99252.16;;;34.81;38.51
8051;BME280;4068;42.158;24.732;2022-07-06T13:10:15;99247.25;;;34.73;38.70
8051;BME280;4068;42.158;24.732;2022-07-06T13:12:41;99259.41;;;34.72;39.86
8051;BME280;4068;42.158;24.732;2022-07-06T13:15:07;99258.53;;;34.08;41.62
8051;BME280;4068;42.158;24.732;2022-07-06T13:17:34;99243.38;;;34.10;41.04
8051;BME280;4068;42.158;24.732;2022-07-06T13:19:59;99260.53;;;33.97;42.28
8051;BME280;4068;42.158;24.732;2022-07-06T13:22:25;99250.78;;;33.75;42.00
8051;BME280;4068;42.158;24.732;2022-07-06T13:24:51;99244.94;;;33.87;42.55
8051;BME280;4068;42.158;24.732;2022-07-06T13:27:16;99245.59;;;34.08;44.04